createdAt,value
2023-04-18T00:00:54.730Z,99287.66
2023-04-18T00:02:33.589Z,99289.52
2023-04-18T00:04:10.066Z,99284.36
2023-04-18T00:05:44.125Z,99290.20
2023-04-18T00:07:29.742Z,99290.08
2023-04-18T00:09:15.236Z,99289.00
2023-04-18T00:11:05.665Z,99286.49
2023-04-18T00:12:39.189Z,99288.64
2023-04-18T00:14:21.657Z,99289.23
2023-04-18T00:15:55.460Z,99288.50
2023-04-18T00:17:41.002Z,99290.16
2023-04-18T00:19:05.537Z,99288.13
2023-04-18T00:20:38.884Z,99286.04
2023-04-18T00:22:13.814Z,99290.01
2023-04-18T00:23:54.829Z,99287.65
2023-04-18T00:25:39.619Z,99291.44
2023-04-18T00:27:12.664Z,99291.61
2023-04-18T00:28:53.601Z,99288.44
2023-04-18T00:30:34.465Z,99297.41
2023-04-18T00:32:28.655Z,99299.39
2023-04-18T00:34:09.818Z,99297.59
2023-04-18T00:35:43.180Z,99295.64
2023-04-18T00:37:25.710Z,99295.94
2023-04-18T00:39:10.601Z,99292.63
2023-04-18T00:40:39.495Z,99294.64
2023-04-18T00:42:20.451Z,99292.08
2023-04-18T00:43:53.464Z,99293.23
2023-04-18T00:45:38.701Z,99293.93
2023-04-18T00:47:19.588Z,99291.19
2023-04-18T00:49:04.844Z,99291.33
2023-04-18T00:50:49.997Z,99289.64
2023-04-18T00:52:33.744Z,99285.50
2023-04-18T00:54:03.205Z,99290.81
2023-04-18T00:55:27.370Z,99291.25
2023-04-18T00:57:00.382Z,99287.25
2023-04-18T00:58:34.247Z,99286.94
2023-04-18T01:00:01.132Z,99286.39
2023-04-18T01:01:27.471Z,99286.25
2023-04-18T01:02:55.763Z,99283.50
2023-04-18T01:04:29.876Z,99284.61
2023-04-18T01:06:15.517Z,99282.42
2023-04-18T01:08:04.275Z,99283.16
2023-04-18T01:09:49.387Z,99282.02
2023-04-18T01:11:23.093Z,99290.22
2023-04-18T01:12:56.892Z,99288.30
2023-04-18T01:14:42.678Z,99286.47
2023-04-18T01:16:27.868Z,99283.54
2023-04-18T01:18:13.032Z,99284.45
2023-04-18T01:19:49.473Z,99290.28
2023-04-18T01:21:13.373Z,99284.52
2023-04-18T01:22:49.091Z,99287.32
2023-04-18T01:24:43.206Z,99288.10
2023-04-18T01:26:26.684Z,99286.63
2023-04-18T01:28:21.732Z,99285.59
2023-04-18T01:30:05.372Z,99256.35
2023-04-18T01:31:50.670Z,99282.52
2023-04-18T01:33:35.493Z,99281.92
2023-04-18T01:35:23.026Z,99283.70
2023-04-18T01:37:08.371Z,99280.76
2023-04-18T01:38:48.844Z,99282.60
2023-04-18T01:40:35.124Z,99283.94
2023-04-18T01:42:11.992Z,99285.08
2023-04-18T01:43:46.071Z,99282.19
2023-04-18T01:45:22.646Z,99284.14
2023-04-18T01:47:03.458Z,99280.33
2023-04-18T01:48:39.090Z,99282.59
2023-04-18T01:50:03.512Z,99287.92
2023-04-18T01:51:39.961Z,99274.00
2023-04-18T01:53:24.909Z,99283.55
2023-04-18T01:55:12.328Z,99281.60
2023-04-18T01:56:47.882Z,99284.14
2023-04-18T01:58:23.193Z,99285.42
2023-04-18T01:59:54.577Z,99284.35
2023-04-18T02:01:39.475Z,99277.68
2023-04-18T02:03:24.735Z,99284.91
2023-04-18T02:05:00.758Z,99279.14
2023-04-18T02:06:34.161Z,99282.83
2023-04-18T02:08:15.560Z,99277.39
2023-04-18T02:09:42.555Z,99283.48
2023-04-18T02:11:19.804Z,99277.33
2023-04-18T02:12:49.189Z,99282.77
2023-04-18T02:14:34.597Z,99282.09
2023-04-18T02:16:11.318Z,99284.34
2023-04-18T02:17:45.238Z,99284.70
2023-04-18T02:19:30.141Z,99286.33
2023-04-18T02:21:16.449Z,99283.08
2023-04-18T02:22:57.411Z,99284.73
2023-04-18T02:24:37.679Z,99283.37
2023-04-18T02:26:23.235Z,99290.14
2023-04-18T02:27:52.631Z,99283.94
2023-04-18T02:29:40.875Z,99285.24
2023-04-18T02:31:15.771Z,99283.64
2023-04-18T02:32:52.115Z,99285.92
2023-04-18T02:34:46.871Z,99272.14
2023-04-18T02:36:32.943Z,99287.09
2023-04-18T02:37:57.201Z,99287.39
2023-04-18T02:39:42.023Z,99289.75
2023-04-18T02:41:35.283Z,99286.70
2023-04-18T02:43:09.912Z,99288.43
2023-04-18T02:44:55.106Z,99285.55
2023-04-18T02:46:30.445Z,99286.55
2023-04-18T02:48:17.099Z,99284.71
2023-04-18T02:49:40.055Z,99279.14
2023-04-18T02:51:15.862Z,99281.43
2023-04-18T02:52:49.865Z,99283.48
2023-04-18T02:54:44.748Z,99286.48
2023-04-18T02:56:12.984Z,99287.75
2023-04-18T02:58:40.160Z,99285.81
2023-04-18T03:00:35.508Z,99286.05
2023-04-18T03:02:26.688Z,99291.95
2023-04-18T03:03:53.607Z,99294.67
2023-04-18T03:05:53.911Z,99292.11
2023-04-18T03:07:38.636Z,99297.97
2023-04-18T03:09:23.799Z,99300.11
2023-04-18T03:11:01.115Z,99295.17
2023-04-18T03:12:35.388Z,99298.26
2023-04-18T03:14:09.068Z,99298.87
2023-04-18T03:16:06.382Z,99297.60
2023-04-18T03:17:40.752Z,99297.56
2023-04-18T03:19:05.368Z,99297.19
2023-04-18T03:20:46.765Z,99294.89
2023-04-18T03:22:33.379Z,99295.56
2023-04-18T03:23:58.364Z,99296.33
2023-04-18T03:25:34.216Z,99299.52
2023-04-18T03:27:19.561Z,99294.29
2023-04-18T03:29:04.765Z,99294.48
2023-04-18T03:30:38.292Z,99279.95
2023-04-18T03:32:03.472Z,99295.98
2023-04-18T03:33:48.422Z,99298.98
2023-04-18T03:35:37.710Z,99296.88
2023-04-18T03:37:18.311Z,99297.15
2023-04-18T03:39:02.701Z,99300.09
2023-04-18T03:40:29.037Z,99298.68
2023-04-18T03:42:26.370Z,99298.55
2023-04-18T03:44:19.653Z,99297.05
2023-04-18T03:46:03.080Z,99289.99
2023-04-18T03:47:39.270Z,99298.36
2023-04-18T03:49:16.912Z,99302.81
2023-04-18T03:50:41.323Z,99297.42
2023-04-18T03:52:08.557Z,99301.27
2023-04-18T03:53:53.878Z,99298.38
2023-04-18T03:55:39.016Z,99298.36
2023-04-18T03:57:25.670Z,99299.09
2023-04-18T03:59:19.737Z,99296.44
2023-04-18T04:01:07.536Z,99293.84
2023-04-18T04:02:41.309Z,99300.70
2023-04-18T04:04:15.821Z,99298.30
2023-04-18T04:06:03.500Z,99296.89
2023-04-18T04:07:36.825Z,99296.96
2023-04-18T04:09:18.802Z,99300.92
2023-04-18T04:11:04.110Z,99301.13
2023-04-18T04:12:45.687Z,99305.13
2023-04-18T04:14:39.237Z,99302.81
2023-04-18T04:16:24.355Z,99307.07
2023-04-18T04:18:16.885Z,99311.66
2023-04-18T04:20:03.407Z,99310.15
2023-04-18T04:21:27.164Z,99309.70
2023-04-18T04:23:04.476Z,99313.93
2023-04-18T04:24:45.815Z,99313.05
2023-04-18T04:26:27.332Z,99318.98
2023-04-18T04:27:59.630Z,99316.56
2023-04-18T04:29:32.902Z,99318.78
2023-04-18T04:31:19.990Z,99323.48
2023-04-18T04:32:57.391Z,99324.50
2023-04-18T04:34:42.750Z,99324.88
2023-04-18T04:36:37.666Z,99328.59
2023-04-18T04:38:24.345Z,99330.04
2023-04-18T04:40:06.205Z,99331.27
2023-04-18T04:41:51.073Z,99335.34
2023-04-18T04:43:27.583Z,99331.59
2023-04-18T04:45:02.182Z,99329.90
2023-04-18T04:46:41.882Z,99334.08
2023-04-18T04:48:26.938Z,99333.51
2023-04-18T04:50:03.341Z,99334.16
2023-04-18T04:51:48.054Z,99334.43
2023-04-18T04:53:41.557Z,99331.77
2023-04-18T04:55:23.819Z,99334.85
2023-04-18T04:56:55.682Z,99337.52
2023-04-18T04:58:40.546Z,99333.04
2023-04-18T05:00:46.183Z,99346.16
2023-04-18T05:02:32.129Z,99339.86
2023-04-18T05:04:20.262Z,99344.36
2023-04-18T05:06:08.197Z,99342.13
2023-04-18T05:07:41.679Z,99342.67
2023-04-18T05:09:15.002Z,99340.00
2023-04-18T05:10:51.175Z,99348.13
2023-04-18T05:12:33.791Z,99352.79
2023-04-18T05:14:07.566Z,99353.55
2023-04-18T05:15:52.780Z,99355.98
2023-04-18T05:17:16.664Z,99354.10
2023-04-18T05:18:50.455Z,99354.09
2023-04-18T05:20:23.771Z,99357.92
2023-04-18T05:21:47.533Z,99356.15
2023-04-18T05:23:23.209Z,99354.00
2023-04-18T05:24:59.337Z,99353.87
2023-04-18T05:26:34.847Z,99353.50
2023-04-18T05:28:10.516Z,99351.85
2023-04-18T05:29:43.672Z,99357.70
2023-04-18T05:31:19.140Z,99353.36
2023-04-18T05:33:00.422Z,99358.60
2023-04-18T05:34:38.602Z,99356.73
2023-04-18T05:36:03.695Z,99362.09
2023-04-18T05:37:48.892Z,99361.09
2023-04-18T05:39:35.389Z,99359.83
2023-04-18T05:41:08.779Z,99352.15
2023-04-18T05:42:42.246Z,99357.97
2023-04-18T05:44:22.405Z,99359.58
2023-04-18T05:45:43.751Z,99361.14
2023-04-18T05:47:28.479Z,99362.70
2023-04-18T05:49:09.500Z,99357.10
2023-04-18T05:50:33.497Z,99357.42
2023-04-18T05:52:23.108Z,99357.41
2023-04-18T05:53:59.407Z,99358.75
2023-04-18T05:55:34.969Z,99360.17
2023-04-18T05:57:10.882Z,99359.83
2023-04-18T05:58:46.697Z,99357.75
2023-04-18T06:00:27.454Z,99367.34
2023-04-18T06:02:21.848Z,99361.64
2023-04-18T06:03:51.421Z,99351.07
2023-04-18T06:05:15.464Z,99355.48
2023-04-18T06:07:00.761Z,99355.16
2023-04-18T06:08:22.130Z,99353.82
2023-04-18T06:10:07.643Z,99362.38
2023-04-18T06:11:43.425Z,99360.73
2023-04-18T06:13:19.097Z,99365.48
2023-04-18T06:14:45.303Z,99367.61
2023-04-18T06:16:31.762Z,99361.83
2023-04-18T06:18:05.072Z,99370.06
2023-04-18T06:19:38.531Z,99364.92
2023-04-18T06:21:13.189Z,99364.33
2023-04-18T06:23:01.108Z,99365.83
2023-04-18T06:24:46.358Z,99364.55
2023-04-18T06:26:15.306Z,99366.84
2023-04-18T06:28:00.709Z,99362.93
2023-04-18T06:29:42.178Z,99363.59
2023-04-18T06:31:27.159Z,99368.98
2023-04-18T06:33:00.626Z,99368.95
2023-04-18T06:34:43.939Z,99373.35
2023-04-18T06:36:24.844Z,99374.73
2023-04-18T06:38:11.239Z,99376.38
2023-04-18T06:40:04.338Z,99379.35
2023-04-18T06:41:39.696Z,99379.26
2023-04-18T06:43:26.373Z,99375.64
2023-04-18T06:45:15.960Z,99377.23
2023-04-18T06:46:49.664Z,99376.34
2023-04-18T06:48:25.292Z,99379.23
2023-04-18T06:49:59.267Z,99377.88
2023-04-18T06:51:39.810Z,99379.42
2023-04-18T06:53:13.880Z,99374.91
2023-04-18T06:54:49.326Z,99381.87
2023-04-18T06:56:22.605Z,99382.95
2023-04-18T06:57:46.628Z,99381.95
2023-04-18T06:59:12.622Z,99384.29
2023-04-18T07:00:59.759Z,99379.25
2023-04-18T07:02:33.193Z,99378.55
2023-04-18T07:04:27.018Z,99381.64
2023-04-18T07:06:02.848Z,99384.31
2023-04-18T07:07:27.033Z,99382.12
2023-04-18T07:09:02.593Z,99379.54
2023-04-18T07:10:47.458Z,99383.31
2023-04-18T07:12:36.239Z,99382.48
2023-04-18T07:14:21.320Z,99380.57
2023-04-18T07:16:06.526Z,99377.08
2023-04-18T07:17:41.925Z,99379.30
2023-04-18T07:19:27.147Z,99377.95
2023-04-18T07:21:20.803Z,99384.80
2023-04-18T07:22:42.713Z,99384.02
2023-04-18T07:24:23.535Z,99377.55
2023-04-18T07:26:09.963Z,99392.43
2023-04-18T07:27:43.677Z,99388.22
2023-04-18T07:29:32.744Z,99388.92
2023-04-18T07:31:09.052Z,99393.86
2023-04-18T07:32:34.023Z,99393.38
2023-04-18T07:34:20.435Z,99396.54
2023-04-18T07:35:53.898Z,99397.91
2023-04-18T07:37:33.831Z,99395.89
2023-04-18T07:39:08.083Z,99395.55
2023-04-18T07:40:31.892Z,99395.23
2023-04-18T07:42:16.710Z,99396.33
2023-04-18T07:44:03.210Z,99393.84
2023-04-18T07:45:36.321Z,99397.02
2023-04-18T07:47:09.950Z,99392.13
2023-04-18T07:48:43.687Z,99391.98
2023-04-18T07:50:17.282Z,99390.96
2023-04-18T07:51:51.017Z,99397.09
2023-04-18T07:53:35.929Z,99390.80
2023-04-18T07:55:24.467Z,99397.25
2023-04-18T07:56:46.678Z,99394.67
2023-04-18T07:58:19.961Z,99393.92
2023-04-18T07:59:53.284Z,99395.70
2023-04-18T08:01:27.288Z,99398.80
2023-04-18T08:03:01.239Z,99398.59
2023-04-18T08:04:46.252Z,99396.84
2023-04-18T08:06:17.721Z,99399.91
2023-04-18T08:07:41.539Z,99399.44
2023-04-18T08:09:26.181Z,99404.56
2023-04-18T08:11:01.714Z,99403.04
2023-04-18T08:12:42.197Z,99405.63
2023-04-18T08:14:17.552Z,99407.61
2023-04-18T08:16:06.167Z,99403.61
2023-04-18T08:17:51.450Z,99410.16
2023-04-18T08:19:36.757Z,99410.99
2023-04-18T08:21:12.869Z,99412.36
2023-04-18T08:23:08.716Z,99411.03
2023-04-18T08:25:04.296Z,99413.80
2023-04-18T08:26:50.164Z,99413.48
2023-04-18T08:28:24.970Z,99414.49
2023-04-18T08:29:54.235Z,99411.51
2023-04-18T08:31:36.780Z,99406.52
2023-04-18T08:33:06.176Z,99414.58
2023-04-18T08:34:51.365Z,99418.61
2023-04-18T08:36:27.044Z,99416.20
2023-04-18T08:38:00.789Z,99415.50
2023-04-18T08:39:45.647Z,99414.66
2023-04-18T08:41:31.739Z,99405.69
2023-04-18T08:43:07.860Z,99406.48
2023-04-18T08:44:48.728Z,99414.23
2023-04-18T08:46:31.056Z,99413.46
2023-04-18T08:48:04.971Z,99412.14
2023-04-18T08:49:49.823Z,99413.48
2023-04-18T08:51:33.901Z,99413.67
2023-04-18T08:53:07.591Z,99416.82
2023-04-18T08:54:49.165Z,99414.08
2023-04-18T08:56:25.485Z,99413.51
2023-04-18T08:58:11.343Z,99415.60
2023-04-18T08:59:43.800Z,99410.69
2023-04-18T09:01:17.872Z,99411.11
2023-04-18T09:03:06.764Z,99404.63
2023-04-18T09:04:49.507Z,99407.20
2023-04-18T09:06:33.419Z,99406.41
2023-04-18T09:08:07.440Z,99403.88
2023-04-18T09:09:52.471Z,99405.80
2023-04-18T09:11:26.254Z,99411.92
2023-04-18T09:12:59.903Z,99411.15
2023-04-18T09:14:24.090Z,99402.80
2023-04-18T09:15:59.142Z,99409.31
2023-04-18T09:17:44.301Z,99409.75
2023-04-18T09:19:29.986Z,99405.65
2023-04-18T09:21:03.639Z,99408.48
2023-04-18T09:22:49.058Z,99412.63
2023-04-18T09:24:35.507Z,99411.63
2023-04-18T09:25:59.552Z,99412.80
2023-04-18T09:27:38.821Z,99409.79
2023-04-18T09:29:12.460Z,99409.83
2023-04-18T09:30:46.550Z,99406.09
2023-04-18T09:32:15.257Z,99407.73
2023-04-18T09:33:56.761Z,99393.34
2023-04-18T09:35:25.981Z,99406.85
2023-04-18T09:36:52.803Z,99399.38
2023-04-18T09:38:27.938Z,99402.44
2023-04-18T09:40:22.737Z,99402.15
2023-04-18T09:41:44.483Z,99404.08
2023-04-18T09:43:25.626Z,99402.85
2023-04-18T09:45:01.297Z,99405.48
2023-04-18T09:46:47.482Z,99409.52
2023-04-18T09:50:24.296Z,99411.70
2023-04-18T09:51:46.636Z,99408.58
2023-04-18T09:53:08.520Z,99407.61
2023-04-18T09:54:30.485Z,99406.48
2023-04-18T09:55:52.417Z,99411.88
2023-04-18T09:57:13.912Z,99412.85
2023-04-18T09:58:35.913Z,99409.67
2023-04-18T09:59:57.627Z,99411.59
2023-04-18T10:01:19.333Z,99413.27
2023-04-18T10:02:41.395Z,99405.11
2023-04-18T10:04:04.346Z,99408.46
2023-04-18T10:05:25.908Z,99401.43
2023-04-18T10:06:50.342Z,99404.88
2023-04-18T10:08:27.747Z,99405.02
2023-04-18T10:09:54.517Z,99402.06
2023-04-18T10:11:34.948Z,99405.84
2023-04-18T10:13:16.016Z,99406.78
2023-04-18T10:14:42.410Z,99401.54
2023-04-18T10:16:07.009Z,99390.42
2023-04-18T10:18:03.694Z,99405.39
2023-04-18T10:19:41.251Z,99404.60
2023-04-18T10:21:26.075Z,99402.89
2023-04-18T10:22:48.044Z,99404.10
2023-04-18T10:24:09.803Z,99404.45
2023-04-18T10:25:31.931Z,99403.02
2023-04-18T10:26:54.254Z,99404.66
2023-04-18T10:28:32.919Z,99404.39
2023-04-18T10:30:08.016Z,99404.08
2023-04-18T10:31:54.096Z,99400.08
2023-04-18T10:33:42.035Z,99397.91
2023-04-18T10:35:36.733Z,99396.32
2023-04-18T10:37:23.952Z,99395.29
2023-04-18T10:39:09.507Z,99398.14
2023-04-18T10:40:45.328Z,99395.87
2023-04-18T10:42:37.334Z,99393.05
2023-04-18T10:43:59.578Z,99395.98
2023-04-18T10:45:40.582Z,99396.17
2023-04-18T10:47:21.251Z,99393.45
2023-04-18T10:48:54.796Z,99394.50
2023-04-18T10:50:30.219Z,99395.14
2023-04-18T10:52:15.651Z,99397.29
2023-04-18T10:54:01.248Z,99400.08
2023-04-18T10:55:46.357Z,99395.55
2023-04-18T10:57:40.411Z,99394.77
2023-04-18T10:59:25.855Z,99395.64
2023-04-18T11:01:20.786Z,99395.77
2023-04-18T11:02:52.395Z,99395.46
2023-04-18T11:04:36.591Z,99391.33
2023-04-18T11:06:09.812Z,99385.57
2023-04-18T11:07:32.125Z,99388.53
2023-04-18T11:09:15.747Z,99387.73
2023-04-18T11:11:00.761Z,99387.03
2023-04-18T11:12:46.171Z,99385.25
2023-04-18T11:14:19.602Z,99387.45
2023-04-18T11:16:00.624Z,99385.70
2023-04-18T11:17:46.430Z,99383.16
2023-04-18T11:19:08.142Z,99388.26
2023-04-18T11:20:53.059Z,99386.06
2023-04-18T11:22:38.131Z,99389.45
2023-04-18T11:24:31.703Z,99386.08
2023-04-18T11:26:00.970Z,99375.13
2023-04-18T11:27:36.805Z,99386.28
2023-04-18T11:29:17.406Z,99385.88
2023-04-18T11:31:11.733Z,99383.42
2023-04-18T11:32:56.673Z,99380.38
2023-04-18T11:34:41.755Z,99382.64
2023-04-18T11:36:35.707Z,99379.59
2023-04-18T11:38:30.829Z,99380.00
2023-04-18T11:40:12.728Z,99377.66
2023-04-18T11:41:36.773Z,99373.67
2023-04-18T11:43:25.177Z,99371.52
2023-04-18T11:45:19.732Z,99373.81
2023-04-18T11:47:04.892Z,99369.20
2023-04-18T11:48:36.201Z,99370.52
2023-04-18T11:50:12.052Z,99369.11
2023-04-18T11:51:47.981Z,99371.98
2023-04-18T11:53:35.912Z,99368.48
2023-04-18T11:55:21.044Z,99364.41
2023-04-18T11:56:53.452Z,99366.48
2023-04-18T11:58:46.062Z,99366.66
2023-04-18T12:00:32.357Z,99360.20
2023-04-18T12:02:16.216Z,99356.09
2023-04-18T12:03:46.556Z,99359.46
2023-04-18T12:05:27.378Z,99352.08
2023-04-18T12:07:03.461Z,99346.02
2023-04-18T12:08:37.003Z,99352.38
2023-04-18T12:09:59.301Z,99354.48
2023-04-18T12:11:25.774Z,99353.23
2023-04-18T12:13:08.632Z,99349.75
2023-04-18T12:15:02.264Z,99353.36
2023-04-18T12:16:42.626Z,99353.23
2023-04-18T12:18:25.384Z,99348.02
2023-04-18T12:19:49.687Z,99348.68
2023-04-18T12:21:43.285Z,99348.75
2023-04-18T12:23:24.897Z,99349.60
2023-04-18T12:24:58.552Z,99345.86
2023-04-18T12:26:43.223Z,99348.66
2023-04-18T12:28:29.805Z,99340.32
2023-04-18T12:30:06.456Z,99337.58
2023-04-18T12:31:39.394Z,99346.17
2023-04-18T12:33:19.917Z,99334.06
2023-04-18T12:34:53.625Z,99339.76
2023-04-18T12:36:15.346Z,99342.17
2023-04-18T12:37:56.723Z,99338.43
2023-04-18T12:39:41.829Z,99334.69
2023-04-18T12:41:08.327Z,99335.46
2023-04-18T12:42:33.402Z,99331.82
2023-04-18T12:44:18.583Z,99332.81
2023-04-18T12:46:04.697Z,99325.73
2023-04-18T12:47:49.841Z,99330.59
2023-04-18T12:49:43.775Z,99328.96
2023-04-18T12:51:24.199Z,99325.36
2023-04-18T12:52:46.023Z,99322.20
2023-04-18T12:54:26.459Z,99328.89
2023-04-18T12:56:00.383Z,99325.94
2023-04-18T12:57:21.745Z,99322.77
2023-04-18T12:58:55.232Z,99324.17
2023-04-18T13:00:40.287Z,99323.89
2023-04-18T13:02:25.867Z,99324.95
2023-04-18T13:03:56.496Z,99320.31
2023-04-18T13:05:45.025Z,99323.03
2023-04-18T13:07:09.278Z,99315.48
2023-04-18T13:08:45.180Z,99313.80
2023-04-18T13:10:20.742Z,99311.10
2023-04-18T13:11:42.645Z,99318.35
2023-04-18T13:13:25.375Z,99316.87
2023-04-18T13:14:47.501Z,99316.83
2023-04-18T13:16:09.567Z,99315.40
2023-04-18T13:17:43.128Z,99314.98
2023-04-18T13:19:16.443Z,99311.70
2023-04-18T13:21:01.534Z,99311.77
2023-04-18T13:22:37.432Z,99309.06
2023-04-18T13:24:31.902Z,99309.06
2023-04-18T13:26:25.575Z,99305.66
2023-04-18T13:27:50.577Z,99305.35
2023-04-18T13:29:14.463Z,99309.11
2023-04-18T13:31:00.789Z,99301.05
2023-04-18T13:32:45.967Z,99301.73
2023-04-18T13:34:21.630Z,99293.80
2023-04-18T13:36:10.143Z,99300.23
2023-04-18T13:37:39.812Z,99301.82
2023-04-18T13:39:24.784Z,99302.48
2023-04-18T13:41:08.943Z,99302.11
2023-04-18T13:42:36.861Z,99300.42
2023-04-18T13:44:01.170Z,99303.27
2023-04-18T13:45:37.058Z,99300.86
2023-04-18T13:47:18.013Z,99298.27
2023-04-18T13:48:42.262Z,99300.45
2023-04-18T13:50:23.001Z,99295.67
2023-04-18T13:51:58.712Z,99298.31
2023-04-18T13:53:40.225Z,99297.77
2023-04-18T13:55:02.068Z,99295.90
2023-04-18T13:56:26.569Z,99295.78
2023-04-18T13:58:00.637Z,99293.58
2023-04-18T13:59:29.320Z,99294.45
2023-04-18T14:01:02.988Z,99291.55
2023-04-18T14:02:48.070Z,99290.64
2023-04-18T14:04:34.115Z,99291.63
2023-04-18T14:05:59.376Z,99292.77
2023-04-18T14:07:28.308Z,99289.52
2023-04-18T14:08:59.773Z,99281.86
2023-04-18T14:10:45.089Z,99292.13
2023-04-18T14:12:36.296Z,99291.45
2023-04-18T14:14:19.853Z,99292.16
2023-04-18T14:15:41.397Z,99295.31
2023-04-18T14:17:16.893Z,99285.82
2023-04-18T14:19:02.389Z,99293.11
2023-04-18T14:20:50.597Z,99291.35
2023-04-18T14:22:35.607Z,99292.71
2023-04-18T14:24:20.859Z,99292.90
2023-04-18T14:26:15.745Z,99293.23
2023-04-18T14:28:10.762Z,99298.93
2023-04-18T14:29:44.423Z,99297.33
2023-04-18T14:31:18.086Z,99296.14
2023-04-18T14:32:40.540Z,99296.23
2023-04-18T14:34:12.531Z,99301.45
2023-04-18T14:35:44.278Z,99294.02
2023-04-18T14:37:18.111Z,99293.55
2023-04-18T14:39:12.900Z,99290.05
2023-04-18T14:40:48.686Z,99295.32
2023-04-18T14:42:25.240Z,99293.42
2023-04-18T14:44:19.751Z,99292.89
2023-04-18T14:46:13.515Z,99293.95
2023-04-18T14:47:58.923Z,99288.89
2023-04-18T14:49:34.289Z,99288.66
2023-04-18T14:51:10.042Z,99289.27
2023-04-18T14:52:39.142Z,99290.17
2023-04-18T14:54:08.547Z,99290.43
2023-04-18T14:55:53.932Z,99287.19
2023-04-18T14:57:36.153Z,99290.29
2023-04-18T14:59:30.737Z,99286.78
2023-04-18T15:01:02.752Z,99281.97
2023-04-18T15:02:26.638Z,99286.93
2023-04-18T15:04:12.308Z,99286.27
2023-04-18T15:05:54.675Z,99286.84
2023-04-18T15:07:28.006Z,99284.00
2023-04-18T15:08:57.762Z,99282.27
2023-04-18T15:10:19.071Z,99280.09
2023-04-18T15:12:08.764Z,99278.91
2023-04-18T15:13:39.962Z,99279.81
2023-04-18T15:15:25.119Z,99277.60
2023-04-18T15:17:00.925Z,99273.38
2023-04-18T15:18:36.885Z,99268.39
2023-04-18T15:20:10.593Z,99270.59
2023-04-18T15:21:43.929Z,99272.98
2023-04-18T15:23:29.639Z,99273.73
2023-04-18T15:25:23.768Z,99268.81
2023-04-18T15:27:09.431Z,99272.02
2023-04-18T15:28:45.220Z,99270.12
2023-04-18T15:30:30.113Z,99268.99
2023-04-18T15:32:23.618Z,99266.39
2023-04-18T15:33:45.460Z,99272.19
2023-04-18T15:35:20.216Z,99272.11
2023-04-18T15:36:56.156Z,99269.29
2023-04-18T15:38:31.536Z,99270.55
2023-04-18T15:40:18.688Z,99271.77
2023-04-18T15:42:03.776Z,99273.05
2023-04-18T15:43:48.811Z,99271.58
2023-04-18T15:45:24.137Z,99271.16
2023-04-18T15:47:10.576Z,99263.52
2023-04-18T15:48:45.616Z,99268.44
2023-04-18T15:50:40.763Z,99266.81
2023-04-18T15:52:23.306Z,99269.04
2023-04-18T15:54:17.761Z,99270.36
2023-04-18T15:56:11.311Z,99268.77
2023-04-18T15:57:56.256Z,99270.23
2023-04-18T15:59:41.071Z,99271.99
2023-04-18T16:01:15.919Z,99269.16
2023-04-18T16:02:49.746Z,99269.48
2023-04-18T16:04:34.560Z,99267.94
2023-04-18T16:06:08.149Z,99250.35
2023-04-18T16:08:01.770Z,99269.30
2023-04-18T16:09:46.545Z,99265.47
2023-04-18T16:11:40.207Z,99266.23
2023-04-18T16:13:25.618Z,99263.08
2023-04-18T16:15:01.645Z,99254.03
2023-04-18T16:16:46.772Z,99263.73
2023-04-18T16:18:41.780Z,99265.10
2023-04-18T16:20:27.054Z,99267.75
2023-04-18T16:22:12.407Z,99267.62
2023-04-18T16:23:41.380Z,99261.02
2023-04-18T16:25:16.246Z,99261.42
2023-04-18T16:27:09.547Z,99256.22
2023-04-18T16:28:43.069Z,99253.66
2023-04-18T16:30:09.897Z,99254.98
2023-04-18T16:31:43.422Z,99255.10
2023-04-18T16:33:28.686Z,99250.30
2023-04-18T16:35:09.935Z,99251.38
2023-04-18T16:36:34.433Z,99250.78
2023-04-18T16:38:11.166Z,99253.39
2023-04-18T16:39:46.480Z,99250.26
2023-04-18T16:41:26.890Z,99252.33
2023-04-18T16:43:14.903Z,99251.94
2023-04-18T16:44:48.449Z,99253.13
2023-04-18T16:46:34.281Z,99253.92
2023-04-18T16:47:59.070Z,99251.84
2023-04-18T16:49:34.679Z,99252.91
2023-04-18T16:51:08.005Z,99250.00
2023-04-18T16:52:53.310Z,99253.98
2023-04-18T16:54:15.481Z,99251.40
2023-04-18T16:55:44.665Z,99253.63
2023-04-18T16:57:29.839Z,99251.46
2023-04-18T16:59:10.651Z,99253.26
2023-04-18T17:00:32.134Z,99253.12
2023-04-18T17:02:01.180Z,99250.44
2023-04-18T17:03:43.914Z,99248.30
2023-04-18T17:05:09.676Z,99250.02
2023-04-18T17:06:51.986Z,99247.38
2023-04-18T17:08:25.872Z,99249.30
2023-04-18T17:09:59.393Z,99245.45
2023-04-18T17:11:46.352Z,99246.48
2023-04-18T17:13:31.677Z,99249.92
2023-04-18T17:15:05.759Z,99249.63
2023-04-18T17:16:27.179Z,99246.08
2023-04-18T17:18:09.228Z,99243.71
2023-04-18T17:19:42.569Z,99251.38
2023-04-18T17:21:27.266Z,99251.95
2023-04-18T17:22:51.720Z,99254.53
2023-04-18T17:24:15.909Z,99253.70
2023-04-18T17:25:49.131Z,99252.56
2023-04-18T17:27:20.493Z,99251.38
2023-04-18T17:28:49.790Z,99257.27
2023-04-18T17:30:26.235Z,99254.21
2023-04-18T17:31:51.073Z,99252.60
2023-04-18T17:33:23.075Z,99255.17
2023-04-18T17:35:04.083Z,99253.64
2023-04-18T17:36:26.315Z,99252.33
2023-04-18T17:37:50.476Z,99250.73
2023-04-18T17:39:21.085Z,99251.93
2023-04-18T17:41:02.098Z,99251.91
2023-04-18T17:42:28.848Z,99251.07
2023-04-18T17:44:02.394Z,99249.34
2023-04-18T17:45:31.232Z,99248.06
2023-04-18T17:47:01.046Z,99245.58
2023-04-18T17:48:22.452Z,99248.92
2023-04-18T17:50:04.062Z,99247.21
2023-04-18T17:51:37.709Z,99246.91
2023-04-18T17:53:13.501Z,99247.30
2023-04-18T17:54:37.309Z,99246.75
2023-04-18T17:56:01.942Z,99246.58
2023-04-18T17:57:35.870Z,99247.55
2023-04-18T17:59:18.760Z,99248.98
2023-04-18T18:03:28.816Z,99242.58
2023-04-18T18:04:58.084Z,99248.25
2023-04-18T18:06:20.251Z,99249.23
2023-04-18T18:07:56.159Z,99247.94
2023-04-18T18:09:41.531Z,99253.27
2023-04-18T18:11:16.234Z,99251.17
2023-04-18T18:12:50.054Z,99250.42
2023-04-18T18:14:12.049Z,99252.19
2023-04-18T18:15:45.516Z,99249.77
2023-04-18T18:17:28.884Z,99249.12
2023-04-18T18:18:55.726Z,99249.42
2023-04-18T18:20:19.958Z,99249.66
2023-04-18T18:22:01.250Z,99243.22
2023-04-18T18:23:46.369Z,99248.48
2023-04-18T18:25:13.255Z,99242.45
2023-04-18T18:26:34.815Z,99246.48
2023-04-18T18:28:17.779Z,99243.15
2023-04-18T18:29:54.008Z,99241.27
2023-04-18T18:31:27.516Z,99241.91
2023-04-18T18:32:57.144Z,99240.54
2023-04-18T18:34:21.431Z,99241.74
2023-04-18T18:36:14.412Z,99240.96
2023-04-18T18:37:47.824Z,99239.87
2023-04-18T18:39:21.222Z,99239.16
2023-04-18T18:41:07.008Z,99236.02
2023-04-18T18:42:43.078Z,99239.82
2023-04-18T18:44:16.906Z,99240.11
2023-04-18T18:45:50.171Z,99240.11
2023-04-18T18:47:43.814Z,99237.96
2023-04-18T18:49:13.307Z,99234.15
2023-04-18T18:50:42.727Z,99234.02
2023-04-18T18:52:11.993Z,99235.52
2023-04-18T18:53:34.685Z,99235.14
2023-04-18T18:55:04.498Z,99234.80
2023-04-18T18:56:26.744Z,99228.91
2023-04-18T18:58:03.326Z,99233.50
2023-04-18T18:59:39.751Z,99230.71
2023-04-18T19:01:20.659Z,99230.66
2023-04-18T19:02:50.413Z,99227.77
2023-04-18T19:04:22.513Z,99228.78
2023-04-18T19:06:04.174Z,99220.89
2023-04-18T19:07:45.197Z,99225.86
2023-04-18T19:09:20.623Z,99222.33
2023-04-18T19:10:56.164Z,99224.96
2023-04-18T19:12:25.430Z,99224.45
2023-04-18T19:13:47.191Z,99218.27
2023-04-18T19:15:41.763Z,99223.80
2023-04-18T19:17:15.274Z,99219.55